Time;durP1;ratioP1;P1;durP2;ratioP2;P2;SDS_P1;SDS_P2;PMS_P1;PMS_P2;Temp;Humidity;BMP_temperature;BMP_pressure;BME280_temperature;BME280_humidity;BME280_pressure;Samples;Min_cycle;Max_cycle;Signal;HPM_P1;HPM_P2
2023/07/09 00:01:59;;;;;;;5.68;4.80;;;18.70;99.90;;;;;;4964640;28;20031;-93
2023/07/09 00:04:25;;;;;;;7.55;5.10;;;18.70;99.90;;;;;;4971240;28;20042;-93
2023/07/09 00:06:51;;;;;;;6.65;4.93;;;18.70;99.90;;;;;;4957217;28;20024;-92
2023/07/09 00:09:21;;;;;;;8.30;5.05;;;18.60;99.90;;;;;;4965523;28;20031;-94
2023/07/09 00:11:47;;;;;;;7.85;5.05;;;18.60;99.90;;;;;;4969898;28;20022;-95
2023/07/09 00:14:15;;;;;;;5.22;4.35;;;18.60;99.90;;;;;;4967058;28;20392;-94
2023/07/09 00:16:42;;;;;;;8.13;5.00;;;18.50;99.90;;;;;;4968660;28;20038;-94
2023/07/09 00:19:13;;;;;;;8.40;5.20;;;18.50;99.90;;;;;;4961795;28;20066;-94
2023/07/09 00:21:40;;;;;;;9.05;6.13;;;18.40;99.90;;;;;;4941759;29;20023;-91
2023/07/09 00:24:10;;;;;;;10.15;4.65;;;18.40;99.90;;;;;;4962551;28;20055;-94
2023/07/09 00:26:38;;;;;;;7.35;5.40;;;18.30;99.90;;;;;;4966896;28;20038;-92
2023/07/09 00:29:04;;;;;;;6.97;4.70;;;18.30;99.90;;;;;;4968861;28;20027;-92
2023/07/09 00:31:30;;;;;;;10.32;5.47;;;18.20;99.90;;;;;;4967473;28;20069;-95
2023/07/09 00:33:55;;;;;;;7.78;5.13;;;18.10;99.90;;;;;;4939299;28;20456;-94
2023/07/09 00:36:31;;;;;;;8.20;5.10;;;18.10;99.90;;;;;;4964668;28;20097;-92
2023/07/09 00:38:59;;;;;;;7.32;4.45;;;18.10;99.90;;;;;;4965326;28;20031;-93
2023/07/09 00:41:25;;;;;;;8.57;5.50;;;18.00;99.90;;;;;;4963136;28;20035;-92
2023/07/09 00:43:53;;;;;;;8.27;4.72;;;18.00;99.90;;;;;;4967301;28;20043;-93
2023/07/09 00:46:27;;;;;;;11.60;5.90;;;18.00;99.90;;;;;;4965257;28;20027;-95
2023/07/09 00:49:08;;;;;;;9.52;5.30;;;18.00;99.90;;;;;;4965404;28;20041;-91
2023/07/09 00:51:40;;;;;;;7.47;5.28;;;18.00;99.90;;;;;;4948957;28;20045;-94
2023/07/09 00:54:19;;;;;;;7.53;4.93;;;18.00;99.90;;;;;;4967821;28;20392;-93
2023/07/09 00:56:51;;;;;;;11.48;4.85;;;18.00;99.90;;;;;;4963290;28;20476;-94
2023/07/09 00:59:22;;;;;;;8.10;5.40;;;17.90;99.90;;;;;;4966486;28;20078;-94
2023/07/09 01:01:50;;;;;;;9.55;4.95;;;17.90;99.90;;;;;;4967744;28;20031;-92
2023/07/09 01:04:19;;;;;;;11.32;5.53;;;17.80;99.90;;;;;;4966903;28;20121;-94
2023/07/09 01:06:49;;;;;;;6.93;4.90;;;17.80;99.90;;;;;;4963984;28;20038;-94
2023/07/09 01:09:16;;;;;;;7.60;4.85;;;17.80;99.90;;;;;;4968480;28;20030;-91
2023/07/09 01:11:42;;;;;;;7.78;5.13;;;17.80;99.90;;;;;;4969176;28;20027;-93
2023/07/09 01:14:10;;;;;;;12.05;5.35;;;17.80;99.90;;;;;;4969352;28;20074;-93
2023/07/09 01:16:46;;;;;;;8.02;5.07;;;17.80;99.90;;;;;;4963871;28;20039;-93
2023/07/09 01:19:13;;;;;;;6.25;4.32;;;17.70;99.90;;;;;;4964906;28;20073;-92
2023/07/09 01:21:40;;;;;;;4.88;4.18;;;17.70;99.90;;;;;;4963787;28;20118;-89
2023/07/09 01:24:14;;;;;;;7.40;4.88;;;17.80;99.90;;;;;;4966093;28;20121;-94
2023/07/09 01:26:40;;;;;;;6.47;4.63;;;17.80;99.90;;;;;;4945210;28;20027;-93
2023/07/09 01:29:06;;;;;;;7.63;5.00;;;17.80;99.90;;;;;;4961921;28;20106;-92
2023/07/09 01:31:32;;;;;;;7.72;4.53;;;17.80;99.90;;;;;;4966668;28;20349;-91
2023/07/09 01:33:59;;;;;;;6.95;4.90;;;17.90;99.90;;;;;;4965592;28;20042;-94
2023/07/09 01:36:24;;;;;;;6.38;4.60;;;18.00;99.90;;;;;;4964335;28;20035;-92
2023/07/09 01:38:53;;;;;;;6.90;3.92;;;18.00;99.90;;;;;;4966870;28;20035;-91
2023/07/09 01:41:19;;;;;;;9.80;5.65;;;17.90;99.90;;;;;;4969430;28;20041;-94
2023/07/09 01:43:45;;;;;;;9.38;5.28;;;17.90;99.90;;;;;;4968856;28;20030;-92
2023/07/09 01:46:12;;;;;;;5.97;4.40;;;17.90;99.90;;;;;;4962117;28;20097;-93
2023/07/09 01:48:40;;;;;;;7.78;5.40;;;17.80;99.90;;;;;;4966674;28;20101;-92
2023/07/09 01:51:09;;;;;;;6.38;4.97;;;17.80;99.90;;;;;;4964086;28;20023;-93
2023/07/09 01:53:38;;;;;;;13.63;5.55;;;17.80;99.90;;;;;;4963809;28;20062;-93
2023/07/09 01:56:04;;;;;;;9.75;5.72;;;17.80;99.90;;;;;;4965826;28;20037;-92
2023/07/09 01:58:30;;;;;;;7.13;5.65;;;17.80;99.90;;;;;;4959601;28;20122;-91
2023/07/09 02:00:56;;;;;;;9.93;5.88;;;17.70;99.90;;;;;;4962922;28;20031;-95
2023/07/09 02:03:24;;;;;;;6.95;5.07;;;17.70;99.90;;;;;;4965264;28;20093;-91
2023/07/09 02:05:54;;;;;;;7.28;4.93;;;17.60;99.90;;;;;;4961320;28;20450;-92
2023/07/09 02:08:19;;;;;;;7.80;5.00;;;17.50;99.90;;;;;;4962447;28;20031;-94
2023/07/09 02:10:48;;;;;;;8.60;5.50;;;17.50;99.90;;;;;;4960744;28;20027;-94
2023/07/09 02:13:14;;;;;;;11.07;5.40;;;17.40;99.90;;;;;;4966209;28;20103;-94
2023/07/09 02:15:43;;;;;;;5.65;5.07;;;17.40;99.90;;;;;;4965042;28;20063;-93
2023/07/09 02:18:09;;;;;;;6.53;4.43;;;17.40;99.90;;;;;;4957847;28;20058;-93
2023/07/09 02:20:35;;;;;;;8.82;5.85;;;17.50;99.90;;;;;;4961016;28;20046;-93
2023/07/09 02:23:01;;;;;;;8.35;6.35;;;17.40;99.90;;;;;;4962825;28;20023;-93
2023/07/09 02:25:27;;;;;;;10.75;5.72;;;17.40;99.90;;;;;;4958850;28;20483;-94
2023/07/09 02:27:54;;;;;;;8.40;6.07;;;17.30;99.90;;;;;;4964525;28;20097;-92
2023/07/09 02:30:19;;;;;;;8.82;5.75;;;17.30;99.90;;;;;;4960348;28;20027;-91
2023/07/09 02:32:45;;;;;;;9.52;6.05;;;17.30;99.90;;;;;;4959565;28;20440;-92
2023/07/09 02:35:10;;;;;;;11.95;6.13;;;17.30;99.90;;;;;;4969327;28;20054;-94
2023/07/09 02:37:36;;;;;;;9.63;5.60;;;17.30;99.90;;;;;;4968957;28;20070;-92
2023/07/09 02:40:04;;;;;;;7.18;5.82;;;17.30;99.90;;;;;;4960397;28;20082;-94
2023/07/09 02:42:30;;;;;;;11.38;5.72;;;17.30;99.90;;;;;;4967672;28;20070;-93
2023/07/09 02:44:55;;;;;;;9.93;5.90;;;17.20;99.90;;;;;;4966951;28;20029;-92
2023/07/09 02:47:21;;;;;;;8.10;5.72;;;17.20;99.90;;;;;;4950468;28;20035;-93
2023/07/09 02:49:47;;;;;;;7.93;5.22;;;17.20;99.90;;;;;;4962837;28;20027;-93
2023/07/09 02:52:13;;;;;;;8.38;5.60;;;17.10;99.90;;;;;;4970786;28;20035;-94
2023/07/09 02:54:39;;;;;;;8.57;5.85;;;17.10;99.90;;;;;;4963544;28;20141;-90
2023/07/09 02:57:05;;;;;;;9.93;6.07;;;17.20;99.90;;;;;;4964573;28;20496;-94
2023/07/09 02:59:32;;;;;;;10.50;6.13;;;17.10;99.90;;;;;;4956722;28;20114;-93
2023/07/09 03:02:00;;;;;;;9.45;6.32;;;17.10;99.90;;;;;;4967774;28;20035;-92
2023/07/09 03:04:26;;;;;;;9.48;6.13;;;17.00;99.90;;;;;;4965816;28;20046;-90
2023/07/09 03:06:53;;;;;;;9.88;5.78;;;17.00;99.90;;;;;;4969941;28;20034;-94
2023/07/09 03:09:20;;;;;;;10.00;6.18;;;17.00;99.90;;;;;;4960285;28;20027;-93
2023/07/09 03:11:45;;;;;;;8.38;6.05;;;17.00;99.90;;;;;;4958724;28;20038;-93
2023/07/09 03:14:11;;;;;;;9.52;6.45;;;17.00;99.90;;;;;;4965478;28;20133;-92
2023/07/09 03:16:37;;;;;;;7.82;5.90;;;17.00;99.90;;;;;;4966672;28;20074;-90
2023/07/09 03:19:04;;;;;;;10.55;5.28;;;17.00;99.90;;;;;;4970005;28;20026;-90
2023/07/09 03:21:30;;;;;;;8.38;6.07;;;16.90;99.90;;;;;;4971039;28;20465;-93
2023/07/09 03:23:56;;;;;;;7.72;5.45;;;16.90;99.90;;;;;;4968194;28;20065;-93
2023/07/09 03:26:22;;;;;;;10.15;5.70;;;16.90;99.90;;;;;;4967020;28;20041;-91
2023/07/09 03:28:48;;;;;;;9.38;6.50;;;17.00;99.90;;;;;;4965068;28;20484;-91
2023/07/09 03:31:17;;;;;;;8.38;5.82;;;16.90;99.90;;;;;;4967432;28;20081;-88
2023/07/09 03:33:42;;;;;;;12.45;6.43;;;16.90;99.90;;;;;;4969847;28;20580;-91
2023/07/09 03:36:08;;;;;;;7.75;5.93;;;16.90;99.90;;;;;;4966562;28;20121;-91
2023/07/09 03:38:33;;;;;;;10.05;5.45;;;16.90;99.90;;;;;;4970033;28;20030;-93
2023/07/09 03:40:59;;;;;;;13.68;4.90;;;16.90;99.90;;;;;;4966151;28;20045;-93
2023/07/09 03:43:25;;;;;;;9.55;6.13;;;16.80;99.90;;;;;;4961919;28;20046;-93
2023/07/09 03:45:51;;;;;;;10.70;6.78;;;16.90;99.90;;;;;;4948785;28;20038;-92
2023/07/09 03:48:18;;;;;;;9.55;5.55;;;16.90;99.90;;;;;;4965209;28;21742;-94
2023/07/09 03:50:45;;;;;;;8.20;5.78;;;16.80;99.90;;;;;;4965163;28;20487;-93
2023/07/09 03:53:12;;;;;;;8.15;6.43;;;16.80;99.90;;;;;;4967312;28;20051;-93
2023/07/09 03:55:37;;;;;;;10.25;5.70;;;16.70;99.90;;;;;;4965805;28;20030;-93
2023/07/09 03:58:03;;;;;;;10.93;6.55;;;16.70;99.90;;;;;;4965085;28;20034;-92
2023/07/09 04:00:30;;;;;;;9.82;6.03;;;16.70;99.90;;;;;;4969759;28;20118;-92
2023/07/09 04:02:56;;;;;;;7.47;5.47;;;16.70;99.90;;;;;;4970411;28;20027;-94
2023/07/09 04:05:25;;;;;;;8.40;5.82;;;16.70;99.90;;;;;;4964571;28;20070;-91
2023/07/09 04:07:51;;;;;;;7.10;5.38;;;16.80;99.90;;;;;;4967294;28;20039;-95
2023/07/09 04:10:26;;;;;;;6.25;5.15;;;16.80;99.90;;;;;;4964786;28;20030;-89
2023/07/09 04:12:53;;;;;;;8.20;6.10;;;16.90;99.90;;;;;;4963099;28;20050;-89
2023/07/09 04:15:19;;;;;;;8.15;6.00;;;16.90;99.90;;;;;;4964731;28;20818;-93
2023/07/09 04:17:44;;;;;;;8.43;5.97;;;17.00;99.90;;;;;;4966102;28;20038;-88
2023/07/09 04:20:10;;;;;;;10.40;6.40;;;17.00;99.90;;;;;;4967519;28;20055;-93
2023/07/09 04:22:37;;;;;;;9.13;6.30;;;17.00;99.90;;;;;;4967815;28;20032;-93
2023/07/09 04:25:06;;;;;;;7.90;5.47;;;17.00;99.90;;;;;;4967200;28;20027;-94
2023/07/09 04:27:32;;;;;;;8.52;5.75;;;17.10;99.90;;;;;;4965292;28;20034;-91
2023/07/09 04:30:11;;;;;;;10.45;6.57;;;17.10;99.90;;;;;;4962908;28;20134;-92
2023/07/09 04:32:37;;;;;;;8.20;5.72;;;17.20;99.90;;;;;;4963001;28;20136;-92
2023/07/09 04:35:06;;;;;;;9.57;6.20;;;17.20;99.90;;;;;;4967018;28;20062;-93
2023/07/09 04:37:38;;;;;;;9.15;5.88;;;17.30;99.90;;;;;;4952572;28;20039;-93
2023/07/09 04:40:06;;;;;;;14.18;6.45;;;17.30;99.90;;;;;;4962832;28;20094;-91
2023/07/09 04:42:39;;;;;;;9.98;5.57;;;17.40;99.90;;;;;;4964105;28;20051;-95
2023/07/09 04:45:06;;;;;;;10.73;6.13;;;17.40;99.90;;;;;;4968720;28;20077;-93
2023/07/09 04:47:38;;;;;;;7.25;5.35;;;17.50;99.90;;;;;;4961185;28;20031;-92
2023/07/09 04:50:06;;;;;;;8.82;5.97;;;17.50;99.90;;;;;;4965188;28;20054;-92
2023/07/09 04:52:35;;;;;;;12.57;6.32;;;17.60;99.90;;;;;;4968024;28;20037;-95
2023/07/09 04:55:01;;;;;;;10.15;6.22;;;17.60;99.90;;;;;;4949593;28;20027;-93
2023/07/09 04:57:30;;;;;;;8.95;6.47;;;17.70;99.90;;;;;;4945822;29;20047;-92
2023/07/09 04:59:55;;;;;;;12.05;6.63;;;17.80;99.90;;;;;;4965232;28;20389;-91
2023/07/09 05:02:27;;;;;;;8.13;6.20;;;17.80;99.90;;;;;;4941426;28;20041;-91
2023/07/09 05:04:53;;;;;;;6.90;5.78;;;17.90;99.90;;;;;;4964096;28;20041;-93
2023/07/09 05:07:24;;;;;;;8.82;6.10;;;18.00;99.90;;;;;;4964899;28;20027;-92
2023/07/09 05:09:49;;;;;;;6.90;5.13;;;18.00;99.90;;;;;;4965516;28;20059;-93
2023/07/09 05:12:15;;;;;;;7.82;6.05;;;18.10;99.90;;;;;;4966042;28;20026;-94
2023/07/09 05:14:44;;;;;;;8.38;5.72;;;18.20;99.90;;;;;;4967636;28;20031;-91
2023/07/09 05:17:09;;;;;;;8.45;5.78;;;18.30;99.90;;;;;;4966864;28;20130;-93
2023/07/09 05:19:35;;;;;;;10.73;5.70;;;18.30;99.90;;;;;;4959949;28;20113;-90
2023/07/09 05:22:01;;;;;;;8.27;6.38;;;18.40;99.90;;;;;;4965275;28;20473;-90
2023/07/09 05:24:27;;;;;;;8.57;5.57;;;18.50;99.90;;;;;;4962606;28;20033;-91
2023/07/09 05:26:54;;;;;;;7.45;5.18;;;18.60;99.90;;;;;;4958344;28;20045;-88
2023/07/09 05:29:25;;;;;;;9.35;6.00;;;18.60;99.90;;;;;;4964033;28;20588;-92
2023/07/09 05:31:51;;;;;;;8.68;5.95;;;18.70;99.90;;;;;;4961607;28;20038;-90
2023/07/09 05:34:25;;;;;;;8.35;6.03;;;18.80;99.90;;;;;;4966526;28;20031;-92
2023/07/09 05:36:51;;;;;;;10.03;5.37;;;18.80;99.90;;;;;;4964260;28;20042;-91
2023/07/09 05:39:22;;;;;;;7.93;6.13;;;18.90;99.90;;;;;;4963403;28;20027;-89
2023/07/09 05:41:49;;;;;;;8.10;5.53;;;19.00;99.90;;;;;;4960367;28;20138;-84
2023/07/09 05:44:15;;;;;;;8.52;5.95;;;19.00;99.90;;;;;;4961856;28;20631;-83
2023/07/09 05:46:40;;;;;;;8.77;5.80;;;19.10;99.90;;;;;;4963769;28;20035;-89
2023/07/09 05:49:06;;;;;;;9.48;6.20;;;19.20;99.90;;;;;;4969179;28;20027;-94
2023/07/09 05:51:33;;;;;;;11.88;6.03;;;19.30;99.90;;;;;;4961817;28;20081;-91
2023/07/09 05:53:59;;;;;;;10.30;5.95;;;19.40;99.90;;;;;;4961891;28;20030;-86
2023/07/09 05:56:25;;;;;;;7.78;5.47;;;19.50;99.90;;;;;;4948349;28;20038;-88
2023/07/09 05:58:52;;;;;;;6.80;5.47;;;19.60;99.90;;;;;;4961511;28;20070;-86
2023/07/09 06:01:19;;;;;;;7.20;5.05;;;19.60;99.90;;;;;;4960888;28;20030;-89
2023/07/09 06:03:46;;;;;;;9.40;6.10;;;19.70;99.90;;;;;;4961001;28;20421;-89
2023/07/09 06:06:12;;;;;;;8.52;5.90;;;19.80;99.90;;;;;;4961545;28;20050;-90
2023/07/09 06:08:39;;;;;;;6.25;4.95;;;19.90;99.90;;;;;;4945852;28;20384;-88
2023/07/09 06:11:05;;;;;;;8.60;5.82;;;19.90;99.90;;;;;;4962648;28;20019;-87
2023/07/09 06:13:32;;;;;;;7.40;5.60;;;20.00;99.90;;;;;;4960525;28;20050;-86
2023/07/09 06:15:59;;;;;;;9.90;6.25;;;20.10;99.90;;;;;;4958715;28;20065;-90
2023/07/09 06:18:29;;;;;;;8.43;5.32;;;20.20;99.90;;;;;;4963037;28;20050;-88
2023/07/09 06:20:56;;;;;;;9.45;6.13;;;20.30;99.90;;;;;;4964503;28;20046;-89
2023/07/09 06:23:22;;;;;;;7.43;4.57;;;20.40;99.90;;;;;;4963053;28;20420;-88
2023/07/09 06:25:48;;;;;;;7.80;5.47;;;20.50;99.90;;;;;;4964058;28;20202;-88
2023/07/09 06:28:18;;;;;;;6.82;5.40;;;20.60;99.90;;;;;;4962839;28;20395;-88
2023/07/09 06:30:45;;;;;;;8.50;5.40;;;20.60;99.90;;;;;;4963636;28;20030;-86
2023/07/09 06:33:12;;;;;;;7.80;5.35;;;20.70;99.90;;;;;;4963408;28;20488;-88
2023/07/09 06:35:39;;;;;;;6.00;5.15;;;20.80;99.90;;;;;;4966223;28;20031;-88
2023/07/09 06:38:05;;;;;;;8.23;5.53;;;20.80;99.90;;;;;;4964697;28;20053;-88
2023/07/09 06:40:31;;;;;;;8.00;4.93;;;20.90;99.90;;;;;;4963715;28;20038;-88
2023/07/09 06:42:57;;;;;;;8.90;5.68;;;21.00;99.90;;;;;;4957792;28;20051;-89
2023/07/09 06:45:23;;;;;;;11.57;6.47;;;21.10;99.90;;;;;;4943687;28;20030;-89
2023/07/09 06:47:49;;;;;;;8.80;6.18;;;21.10;99.90;;;;;;4961887;28;20031;-88
2023/07/09 06:50:15;;;;;;;7.57;5.15;;;21.20;99.90;;;;;;4946462;28;20035;-87
2023/07/09 06:52:41;;;;;;;7.72;5.50;;;21.30;99.90;;;;;;4963520;28;20026;-87
2023/07/09 06:55:08;;;;;;;11.82;6.05;;;21.30;99.90;;;;;;4961313;28;20393;-86
2023/07/09 06:57:34;;;;;;;10.43;6.00;;;21.40;99.90;;;;;;4963927;28;20069;-86
2023/07/09 07:00:00;;;;;;;8.90;6.30;;;21.40;99.90;;;;;;4962858;28;20050;-85
2023/07/09 07:02:26;;;;;;;9.23;6.13;;;21.50;99.90;;;;;;4964577;28;20031;-84
2023/07/09 07:04:51;;;;;;;8.85;6.03;;;21.50;99.90;;;;;;4964091;28;20109;-87
2023/07/09 07:07:17;;;;;;;9.57;6.00;;;21.60;99.90;;;;;;4960482;28;20038;-87
2023/07/09 07:09:42;;;;;;;9.15;6.10;;;21.60;99.90;;;;;;4964428;28;20409;-84
2023/07/09 07:12:08;;;;;;;13.32;5.95;;;21.70;99.90;;;;;;4961749;28;20027;-86
2023/07/09 07:14:34;;;;;;;9.10;5.85;;;21.70;99.90;;;;;;4960376;28;20078;-85
2023/07/09 07:17:00;;;;;;;8.18;6.47;;;21.80;99.90;;;;;;4961620;28;20089;-85
2023/07/09 07:19:26;;;;;;;8.93;5.82;;;21.90;99.90;;;;;;4964879;28;20062;-85
2023/07/09 07:21:53;;;;;;;9.30;6.20;;;22.00;99.90;;;;;;4964448;28;20050;-84
2023/07/09 07:24:18;;;;;;;7.90;6.07;;;22.00;99.90;;;;;;4964472;28;20321;-85
2023/07/09 07:26:44;;;;;;;10.20;6.35;;;22.10;99.90;;;;;;4962681;28;20182;-84
2023/07/09 07:29:09;;;;;;;8.98;5.75;;;22.20;99.90;;;;;;4961812;28;20532;-84
2023/07/09 07:31:35;;;;;;;7.40;5.70;;;22.30;99.90;;;;;;4965129;28;20117;-81
2023/07/09 07:34:01;;;;;;;10.65;5.55;;;22.30;99.90;;;;;;4965587;28;20030;-81
2023/07/09 07:36:26;;;;;;;9.98;5.72;;;22.40;99.90;;;;;;4966611;28;20062;-82
2023/07/09 07:38:52;;;;;;;7.20;5.65;;;22.40;99.90;;;;;;4966101;28;20060;-80
2023/07/09 07:41:19;;;;;;;7.57;5.20;;;22.50;99.90;;;;;;4960711;28;20027;-83
2023/07/09 07:43:44;;;;;;;10.00;6.95;;;22.50;99.90;;;;;;4944151;28;20051;-81
2023/07/09 07:46:10;;;;;;;7.68;6.03;;;22.70;99.90;;;;;;4948044;28;20497;-86
2023/07/09 07:48:35;;;;;;;12.82;6.28;;;22.80;99.90;;;;;;4941785;28;20030;-86
2023/07/09 07:51:03;;;;;;;9.52;5.88;;;22.90;99.90;;;;;;4944922;29;20051;-88
2023/07/09 07:53:30;;;;;;;8.95;5.43;;;22.90;99.90;;;;;;4939026;28;20023;-85
2023/07/09 07:55:56;;;;;;;10.48;5.07;;;23.00;99.90;;;;;;4942103;28;20047;-88
2023/07/09 07:58:22;;;;;;;8.60;5.80;;;23.10;99.90;;;;;;4943048;28;20043;-87
2023/07/09 08:00:48;;;;;;;8.70;6.18;;;23.20;99.90;;;;;;4942533;29;20038;-87
2023/07/09 08:03:14;;;;;;;10.25;5.63;;;23.30;99.90;;;;;;4938539;29;20020;-83
2023/07/09 08:05:39;;;;;;;8.82;5.40;;;23.30;99.90;;;;;;4945308;28;20086;-85
2023/07/09 08:08:05;;;;;;;12.05;5.70;;;23.40;99.90;;;;;;4943315;28;20051;-87
2023/07/09 08:10:31;;;;;;;10.50;6.25;;;23.40;99.90;;;;;;4943006;28;20503;-85
2023/07/09 08:12:57;;;;;;;7.55;5.20;;;23.50;99.90;;;;;;4939140;28;20448;-86
2023/07/09 08:15:25;;;;;;;11.35;6.00;;;23.60;99.90;;;;;;4944951;28;20042;-84
2023/07/09 08:17:51;;;;;;;8.65;5.70;;;23.70;99.90;;;;;;4945338;28;20047;-84
2023/07/09 08:20:16;;;;;;;8.27;5.85;;;23.80;99.90;;;;;;4941892;28;20042;-84
2023/07/09 08:22:43;;;;;;;13.70;6.20;;;23.90;99.90;;;;;;4945748;28;20312;-85
2023/07/09 08:25:09;;;;;;;12.40;6.93;;;23.90;99.90;;;;;;4947386;29;20031;-84
2023/07/09 08:27:34;;;;;;;15.55;7.63;;;24.00;99.90;;;;;;4938179;28;20035;-83
2023/07/09 08:30:00;;;;;;;19.67;7.80;;;24.20;99.90;;;;;;4943364;28;20027;-84
2023/07/09 08:32:25;;;;;;;15.43;6.93;;;24.20;99.90;;;;;;4943601;28;20123;-84
2023/07/09 08:34:51;;;;;;;10.52;6.05;;;24.30;99.90;;;;;;4944026;29;20031;-84
2023/07/09 08:37:16;;;;;;;9.02;6.00;;;24.40;99.90;;;;;;4940143;29;20091;-84
2023/07/09 08:39:42;;;;;;;14.27;6.43;;;24.50;99.90;;;;;;4943585;28;20102;-85
2023/07/09 08:42:13;;;;;;;16.40;6.10;;;24.60;99.90;;;;;;4946322;28;20043;-83
2023/07/09 08:45:05;;;;;;;9.57;6.35;;;24.70;99.90;;;;;;4960982;28;20031;-85
2023/07/09 08:47:58;;;;;;;9.90;5.47;;;24.80;99.90;;;;;;4962637;28;20125;-85
2023/07/09 08:50:35;;;;;;;9.75;6.13;;;24.90;99.90;;;;;;4959079;28;20563;-84
2023/07/09 08:53:01;;;;;;;11.35;5.55;;;25.00;99.90;;;;;;4965989;28;20019;-85
2023/07/09 08:55:39;;;;;;;10.70;5.70;;;25.10;99.90;;;;;;4966214;28;20027;-85
2023/07/09 08:58:35;;;;;;;10.40;6.00;;;25.20;99.90;;;;;;4961368;28;20102;-84
2023/07/09 09:01:05;;;;;;;9.07;5.40;;;25.30;99.90;;;;;;4954571;28;20023;-85
2023/07/09 09:03:37;;;;;;;14.15;5.88;;;25.40;99.90;;;;;;4962659;28;20511;-87
2023/07/09 09:06:10;;;;;;;23.88;6.38;;;25.50;99.90;;;;;;4964642;28;20118;-84
2023/07/09 09:09:00;;;;;;;10.32;5.63;;;25.60;99.90;;;;;;4960289;28;20026;-85
2023/07/09 09:11:48;;;;;;;10.88;5.60;;;25.60;99.90;;;;;;4959238;28;20118;-84
2023/07/09 09:14:39;;;;;;;12.95;5.63;;;25.70;99.90;;;;;;4963294;28;20031;-84
2023/07/09 09:17:12;;;;;;;10.10;5.32;;;25.80;99.90;;;;;;4957429;28;20058;-85
2023/07/09 09:19:43;;;;;;;16.00;6.32;;;25.80;99.90;;;;;;4956479;28;20034;-82
2023/07/09 09:22:13;;;;;;;5.85;5.18;;;25.90;99.90;;;;;;4959711;28;20101;-83
2023/07/09 09:24:55;;;;;;;17.85;6.18;;;25.90;99.90;;;;;;4955863;28;20518;-83
2023/07/09 09:27:20;;;;;;;12.35;5.65;;;26.10;99.90;;;;;;4961927;28;20066;-81
2023/07/09 09:29:46;;;;;;;17.38;5.32;;;26.20;99.90;;;;;;4965414;28;20057;-82
2023/07/09 09:32:34;;;;;;;9.20;5.85;;;26.30;99.90;;;;;;4963134;28;20428;-84
2023/07/09 09:35:12;;;;;;;12.13;5.72;;;26.40;99.90;;;;;;4961817;28;20054;-83
2023/07/09 09:37:37;;;;;;;16.20;5.30;;;26.50;99.90;;;;;;4958705;28;20035;-82
2023/07/09 09:40:09;;;;;;;14.32;5.40;;;26.50;99.90;;;;;;4962489;28;20029;-83
2023/07/09 09:42:34;;;;;;;8.13;5.40;;;26.60;99.90;;;;;;4959978;28;20515;-82
2023/07/09 09:45:01;;;;;;;10.05;5.18;;;26.70;99.90;;;;;;4963570;28;20026;-82
2023/07/09 09:47:28;;;;;;;10.93;5.57;;;26.80;99.90;;;;;;4963510;28;20030;-82
2023/07/09 09:49:56;;;;;;;19.50;5.72;;;26.80;99.90;;;;;;4962393;28;20031;-84
2023/07/09 09:52:30;;;;;;;7.53;5.22;;;26.90;99.90;;;;;;4962271;28;20039;-83
2023/07/09 09:55:25;;;;;;;12.65;5.50;;;27.00;99.90;;;;;;4935051;28;20119;-82
2023/07/09 09:57:52;;;;;;;8.80;5.35;;;27.10;99.20;;;;;;4962013;28;20397;-83
2023/07/09 10:00:23;;;;;;;8.68;5.22;;;27.20;96.80;;;;;;4958218;28;20031;-83
2023/07/09 10:02:49;;;;;;;11.02;5.25;;;27.30;98.80;;;;;;4962275;28;20038;-82
2023/07/09 10:05:16;;;;;;;8.18;4.88;;;27.40;99.90;;;;;;4961228;28;20027;-83
2023/07/09 10:08:09;;;;;;;6.68;4.97;;;27.40;98.60;;;;;;4956494;28;20031;-83
2023/07/09 10:10:35;;;;;;;8.23;5.72;;;27.60;95.10;;;;;;4958060;28;20110;-83
2023/07/09 10:13:22;;;;;;;7.25;5.55;;;27.70;91.50;;;;;;4965321;28;20030;-84
2023/07/09 10:15:56;;;;;;;10.43;4.93;;;27.80;88.10;;;;;;4966247;28;20031;-83
2023/07/09 10:18:49;;;;;;;13.90;4.77;;;27.90;87.20;;;;;;4960837;28;20035;-83
2023/07/09 10:21:24;;;;;;;9.10;5.32;;;28.00;87.70;;;;;;4959248;28;20085;-84
2023/07/09 10:23:59;;;;;;;;;;;28.10;83.70;;;;;;4961016;28;20034;-83
2023/07/09 10:26:37;;;;;;;10.27;5.25;;;28.10;77.20;;;;;;4961056;28;19915;-83
2023/07/09 10:29:39;;;;;;;7.25;4.70;;;28.20;76.30;;;;;;4960609;28;20023;-83
2023/07/09 10:32:16;;;;;;;9.82;4.70;;;28.20;69.30;;;;;;4960732;28;20496;-83
2023/07/09 10:35:23;;;;;;;13.93;5.07;;;28.20;68.90;;;;;;4958177;28;20090;-83
2023/07/09 10:37:57;;;;;;;7.13;4.75;;;28.30;68.80;;;;;;4953090;28;20456;-82
2023/07/09 10:40:49;;;;;;;9.68;5.22;;;28.40;70.90;;;;;;4962680;28;20027;-83
2023/07/09 10:43:24;;;;;;;8.77;5.55;;;28.40;68.80;;;;;;4957823;28;20051;-83
2023/07/09 10:45:54;;;;;;;;;;;28.50;69.70;;;;;;4957856;28;20465;-83
2023/07/09 10:48:31;;;;;;;9.35;5.10;;;28.60;70.10;;;;;;4965336;28;19910;-82
2023/07/09 10:50:57;;;;;;;6.40;5.25;;;28.60;68.50;;;;;;4954629;28;20055;-82
2023/07/09 10:53:46;;;;;;;11.10;5.85;;;28.60;64.00;;;;;;4962726;28;20793;-82
2023/07/09 10:56:16;;;;;;;8.73;5.68;;;28.70;60.50;;;;;;4963432;28;20023;-82
2023/07/09 10:58:53;;;;;;;8.65;4.70;;;28.70;58.10;;;;;;4969383;28;20042;-82
2023/07/09 11:01:27;;;;;;;7.75;5.32;;;28.80;58.10;;;;;;4960936;28;20062;-82
2023/07/09 11:03:58;;;;;;;7.28;4.82;;;28.80;59.80;;;;;;4964473;28;20038;-81
2023/07/09 11:06:35;;;;;;;5.75;4.68;;;28.80;58.40;;;;;;4968271;28;20038;-83
2023/07/09 11:09:04;;;;;;;7.90;5.00;;;28.80;58.80;;;;;;4963192;28;20133;-82
2023/07/09 11:11:38;;;;;;;8.55;4.93;;;28.90;57.20;;;;;;4963850;28;20054;-83
2023/07/09 11:14:11;;;;;;;15.75;5.50;;;28.90;56.70;;;;;;4963238;28;20035;-82
2023/07/09 11:16:41;;;;;;;5.15;4.38;;;29.00;59.70;;;;;;4964890;28;20037;-83
2023/07/09 11:19:16;;;;;;;13.60;5.22;;;29.10;59.50;;;;;;4957009;28;20034;-82
2023/07/09 11:22:26;;;;;;;9.93;5.53;;;29.10;56.40;;;;;;4964068;28;20125;-82
2023/07/09 11:25:04;;;;;;;8.48;4.85;;;29.10;56.70;;;;;;4949709;28;21363;-82
2023/07/09 11:27:31;;;;;;;12.00;5.28;;;29.10;57.10;;;;;;4959889;28;20031;-83
2023/07/09 11:30:05;;;;;;;7.25;4.38;;;29.10;56.20;;;;;;4962461;28;20240;-82
2023/07/09 11:32:30;;;;;;;9.55;5.18;;;29.20;54.60;;;;;;4968324;28;20070;-81
2023/07/09 11:35:08;;;;;;;9.38;5.50;;;29.30;54.30;;;;;;4957678;28;20326;-81
2023/07/09 11:37:45;;;;;;;16.15;6.10;;;29.30;54.20;;;;;;4966907;28;20516;-82
2023/07/09 11:40:13;;;;;;;11.23;4.82;;;29.30;54.90;;;;;;4959166;28;20035;-81
2023/07/09 11:42:56;;;;;;;11.52;5.57;;;29.40;53.20;;;;;;4967763;28;20086;-80
2023/07/09 11:45:32;;;;;;;9.32;5.10;;;29.40;53.40;;;;;;4962450;28;20077;-82
2023/07/09 11:48:26;;;;;;;6.07;4.43;;;29.40;52.40;;;;;;4956854;28;20352;-81
2023/07/09 11:50:54;;;;;;;11.57;5.55;;;29.50;51.80;;;;;;4960201;28;20109;-82
2023/07/09 11:53:42;;;;;;;9.98;5.43;;;29.40;52.20;;;;;;4961340;28;20062;-82
2023/07/09 11:56:09;;;;;;;7.50;5.07;;;29.60;53.10;;;;;;4966283;28;20022;-81
2023/07/09 11:58:34;;;;;;;11.57;5.15;;;29.70;54.90;;;;;;4958781;28;20414;-80
2023/07/09 12:01:01;;;;;;;12.85;5.32;;;29.80;51.80;;;;;;4959257;28;20033;-81
2023/07/09 12:03:34;;;;;;;7.28;5.18;;;29.70;52.10;;;;;;4964633;28;20390;-82
2023/07/09 12:06:03;;;;;;;9.75;4.70;;;29.80;51.30;;;;;;4963652;28;20045;-80
2023/07/09 12:08:38;;;;;;;7.47;5.63;;;29.80;53.60;;;;;;4959731;28;20027;-81
2023/07/09 12:11:04;;;;;;;11.95;6.25;;;29.90;51.40;;;;;;4965304;28;20117;-82
2023/07/09 12:13:39;;;;;;;7.03;5.75;;;29.90;48.90;;;;;;4963987;28;20039;-80
2023/07/09 12:16:18;;;;;;;9.07;5.75;;;30.00;51.90;;;;;;4961109;28;20566;-81
2023/07/09 12:18:44;;;;;;;9.63;5.68;;;30.00;51.60;;;;;;4955252;28;20047;-81
2023/07/09 12:21:10;;;;;;;7.28;5.28;;;30.10;50.70;;;;;;4962645;28;20540;-81
2023/07/09 12:23:36;;;;;;;8.15;6.00;;;30.10;52.30;;;;;;4964698;28;20054;-81
2023/07/09 12:26:03;;;;;;;8.80;4.97;;;30.10;53.10;;;;;;4965501;28;20421;-81
2023/07/09 12:28:30;;;;;;;12.55;6.45;;;30.20;51.90;;;;;;4959340;28;20332;-81
2023/07/09 12:30:56;;;;;;;10.10;5.97;;;30.20;51.40;;;;;;4964738;28;20028;-81
2023/07/09 12:33:24;;;;;;;8.13;6.13;;;30.20;50.30;;;;;;4960860;28;20038;-81
2023/07/09 12:35:57;;;;;;;8.57;6.22;;;30.30;49.00;;;;;;4960056;28;20388;-80
2023/07/09 12:38:25;;;;;;;7.90;5.53;;;30.30;49.00;;;;;;4960547;28;20464;-81
2023/07/09 12:40:52;;;;;;;11.50;6.47;;;30.30;50.40;;;;;;4966512;28;20089;-81
2023/07/09 12:43:26;;;;;;;13.23;6.05;;;30.30;52.50;;;;;;4963606;28;20043;-81
2023/07/09 12:45:53;;;;;;;9.82;6.07;;;30.40;51.20;;;;;;4963980;28;20070;-81
2023/07/09 12:48:24;;;;;;;11.23;6.25;;;30.50;51.30;;;;;;4964791;28;20114;-82
2023/07/09 12:50:51;;;;;;;8.95;6.40;;;30.50;49.60;;;;;;4967344;28;20027;-80
2023/07/09 12:53:20;;;;;;;8.38;5.63;;;30.60;49.70;;;;;;4964324;28;20065;-80
2023/07/09 12:55:49;;;;;;;12.57;6.78;;;30.60;48.20;;;;;;4966106;28;20074;-79